Time;durP1;ratioP1;P1;durP2;ratioP2;P2;SDS_P1;SDS_P2;PMS_P1;PMS_P2;Temp;Humidity;BMP_temperature;BMP_pressure;BME280_temperature;BME280_humidity;BME280_pressure;Samples;Min_cycle;Max_cycle;Signal;HPM_P1;HPM_P2
2022/06/01 00:01:58;;;;;;;0.20;0.20;;;;;;;8.49;100.00;100108.72;5071650;28;20204;-72
2022/06/01 00:04:23;;;;;;;0.00;0.00;;;;;;;8.44;100.00;100113.50;5072821;28;20202;-72
2022/06/01 00:06:48;;;;;;;0.00;0.00;;;;;;;8.49;100.00;100116.09;5072499;28;20672;-72
2022/06/01 00:09:14;;;;;;;0.00;0.00;;;;;;;8.52;100.00;100110.84;5072395;28;20167;-71
2022/06/01 00:11:39;;;;;;;0.00;0.00;;;;;;;8.41;100.00;100114.91;5071374;28;20181;-72
2022/06/01 00:14:06;;;;;;;0.00;0.00;;;;;;;8.28;100.00;100111.06;5072670;28;20174;-71
2022/06/01 00:16:32;;;;;;;0.00;0.00;;;;;;;8.24;100.00;100117.41;5072431;28;20562;-72
2022/06/01 00:18:58;;;;;;;0.00;0.00;;;;;;;8.23;100.00;100111.16;5072212;28;20245;-71
2022/06/01 00:21:24;;;;;;;0.00;0.00;;;;;;;8.22;100.00;100116.91;5072537;28;20627;-72
2022/06/01 00:23:49;;;;;;;0.00;0.00;;;;;;;8.25;100.00;100111.69;5070939;28;20186;-72
2022/06/01 00:26:15;;;;;;;1.50;1.40;;;;;;;8.21;100.00;100110.66;5072125;28;20198;-72
2022/06/01 00:28:40;;;;;;;0.23;0.20;;;;;;;8.29;100.00;100117.31;5071597;28;20178;-73
2022/06/01 00:31:05;;;;;;;0.10;0.10;;;;;;;8.32;100.00;100124.84;5072354;28;20171;-71
2022/06/01 00:33:31;;;;;;;0.30;0.30;;;;;;;8.54;100.00;100124.16;5072264;28;20174;-72
2022/06/01 00:35:56;;;;;;;0.50;0.50;;;;;;;8.83;100.00;100121.06;5072306;28;20297;-73
2022/06/01 00:38:21;;;;;;;0.73;0.73;;;;;;;9.05;100.00;100123.00;5071513;28;20170;-71
2022/06/01 00:40:48;;;;;;;0.60;0.60;;;;;;;9.24;100.00;100115.44;5070790;28;20286;-71
2022/06/01 00:43:40;;;;;;;0.70;0.70;;;;;;;9.44;100.00;100108.69;5071066;28;20532;-71
2022/06/01 00:46:05;;;;;;;1.67;1.57;;;;;;;9.58;100.00;100114.06;5062249;28;20191;-72
2022/06/01 00:48:32;;;;;;;0.90;0.90;;;;;;;9.68;100.00;100119.22;5071007;28;20684;-71
2022/06/01 00:50:58;;;;;;;0.00;0.00;;;;;;;9.72;100.00;100121.03;5070612;28;20196;-71
2022/06/01 00:53:31;;;;;;;1.03;1.03;;;;;;;9.73;100.00;100110.91;5072303;28;20213;-72
2022/06/01 00:56:01;;;;;;;1.13;1.13;;;;;;;9.79;100.00;100120.56;5071671;28;20662;-72
2022/06/01 00:58:35;;;;;;;0.80;0.80;;;;;;;9.89;100.00;100120.31;5071033;28;20171;-71
2022/06/01 01:01:00;;;;;;;1.17;1.07;;;;;;;9.90;100.00;100108.25;5071459;28;20241;-72
2022/06/01 01:03:30;;;;;;;1.40;1.17;;;;;;;9.96;100.00;100107.00;5070302;28;20186;-72
2022/06/01 01:06:11;;;;;;;0.67;0.67;;;;;;;9.99;100.00;100100.94;5071435;28;20163;-71
2022/06/01 01:08:37;;;;;;;0.53;0.53;;;;;;;10.04;100.00;100086.31;5071026;28;20171;-71
2022/06/01 01:11:02;;;;;;;0.80;0.80;;;;;;;10.01;100.00;100095.94;5070165;28;20553;-71
2022/06/01 01:13:28;;;;;;;0.50;0.50;;;;;;;10.03;100.00;100088.25;5071494;28;20187;-71
2022/06/01 01:15:56;;;;;;;0.77;0.77;;;;;;;10.10;100.00;100083.13;5071227;28;20209;-71
2022/06/01 01:18:25;;;;;;;0.50;0.50;;;;;;;10.17;100.00;100082.66;5069953;28;20173;-72
2022/06/01 01:21:02;;;;;;;0.67;0.67;;;;;;;10.19;100.00;100063.25;5071495;28;20662;-73
2022/06/01 01:23:47;;;;;;;0.67;0.67;;;;;;;10.19;100.00;100055.84;5071496;28;20547;-74
2022/06/01 01:26:14;;;;;;;0.77;0.77;;;;;;;10.21;100.00;100050.91;5071126;28;20697;-74
2022/06/01 01:28:40;;;;;;;0.20;0.20;;;;;;;10.26;100.00;100039.03;5069480;28;20174;-74
2022/06/01 01:31:17;;;;;;;0.50;0.50;;;;;;;10.25;100.00;100018.31;5071342;28;20178;-74
2022/06/01 01:33:43;;;;;;;1.17;1.13;;;;;;;10.23;100.00;100013.16;5070089;28;20516;-73
2022/06/01 01:36:11;;;;;;;5.73;1.73;;;;;;;10.23;100.00;100026.00;5070958;28;20199;-73
2022/06/01 01:38:59;;;;;;;8.20;2.53;;;;;;;10.28;100.00;100036.81;5070568;28;20197;-74
2022/06/01 01:41:33;;;;;;;2.33;2.13;;;;;;;10.31;100.00;100049.81;5071354;28;20155;-74
2022/06/01 01:44:19;;;;;;;1.57;0.80;;;;;;;10.28;100.00;100048.53;5070065;28;20259;-74
2022/06/01 01:46:49;;;;;;;5.10;1.57;;;;;;;10.25;100.00;100057.31;5069021;28;20178;-74
2022/06/01 01:49:22;;;;;;;12.13;1.60;;;;;;;10.23;100.00;100069.69;5070754;28;20170;-74
2022/06/01 01:51:49;;;;;;;1.27;1.17;;;;;;;10.21;100.00;100056.38;5071139;28;20167;-76
2022/06/01 01:54:34;;;;;;;0.70;0.70;;;;;;;10.20;100.00;100056.66;5069626;28;20174;-74
2022/06/01 01:57:15;;;;;;;2.30;2.10;;;;;;;10.18;100.00;100061.63;5069477;28;20198;-74
2022/06/01 02:00:17;;;;;;;1.70;1.60;;;;;;;10.14;100.00;100056.81;5069488;28;20241;-75
2022/06/01 02:02:50;;;;;;;1.33;1.23;;;;;;;10.10;100.00;100058.56;5069711;28;20166;-74
2022/06/01 02:08:28;;;;;;;1.80;1.70;;;;;;;10.14;100.00;100058.75;5070492;28;20566;-72
2022/06/01 02:13:45;;;;;;;1.80;1.70;;;;;;;10.13;100.00;100060.66;5074952;28;20367;-71
2022/06/01 02:16:10;;;;;;;3.17;1.93;;;;;;;10.17;100.00;100051.84;5073459;28;20722;-71
2022/06/01 02:18:41;;;;;;;1.83;1.73;;;;;;;10.19;100.00;100063.25;5074372;28;20258;-71
2022/06/01 02:21:18;;;;;;;2.53;1.20;;;;;;;10.18;100.00;100051.53;5074671;28;20664;-71
2022/06/01 02:23:44;;;;;;;1.13;1.13;;;;;;;10.23;100.00;100050.59;5074661;28;20169;-72
2022/06/01 02:26:10;;;;;;;2.80;2.60;;;;;;;10.22;100.00;100057.97;5073121;28;20607;-71
2022/06/01 02:28:40;;;;;;;2.87;2.63;;;;;;;10.22;100.00;100068.09;5074736;28;20171;-71
2022/06/01 02:31:07;;;;;;;1.30;1.30;;;;;;;10.24;100.00;100065.84;5074881;28;20170;-71
2022/06/01 02:33:34;;;;;;;3.20;2.10;;;;;;;10.25;100.00;100068.25;5074725;28;20175;-71
2022/06/01 02:36:02;;;;;;;1.57;1.47;;;;;;;10.28;100.00;100055.91;5074372;28;20194;-72
2022/06/01 02:38:42;;;;;;;0.40;0.40;;;;;;;10.30;100.00;100061.84;5073962;28;20186;-72
2022/06/01 02:42:25;;;;;;;1.10;1.10;;;;;;;10.29;100.00;100071.16;5073018;28;20228;-72
2022/06/01 02:43:53;;;;;;;0.97;0.97;;;;;;;10.27;100.00;100076.13;5073866;28;20248;-72
2022/06/01 02:46:18;;;;;;;5.40;1.60;;;;;;;10.26;100.00;100078.03;5073411;28;20170;-72
2022/06/01 02:48:45;;;;;;;0.70;0.70;;;;;;;10.30;99.71;100080.97;5073664;28;20170;-72
2022/06/01 02:51:12;;;;;;;0.60;0.60;;;;;;;10.32;99.64;100084.19;5072782;28;20270;-70
2022/06/01 02:53:37;;;;;;;1.30;1.20;;;;;;;10.31;99.94;100077.91;5072672;28;20208;-72
2022/06/01 02:56:03;;;;;;;0.97;0.57;;;;;;;10.34;98.88;100080.00;5074001;28;20208;-72
2022/06/01 02:58:28;;;;;;;3.57;2.10;;;;;;;10.37;98.31;100073.91;5072138;28;20183;-71
2022/06/01 03:00:54;;;;;;;1.20;0.77;;;;;;;10.41;98.42;100083.09;5073932;28;20257;-72
2022/06/01 03:03:21;;;;;;;2.20;2.00;;;;;;;10.35;99.07;100086.25;5073866;28;20584;-72
2022/06/01 03:05:46;;;;;;;0.87;0.70;;;;;;;10.36;99.12;100082.41;5073736;28;20574;-72
2022/06/01 03:08:11;;;;;;;1.40;1.30;;;;;;;10.37;99.41;100081.28;5073476;28;20170;-72
2022/06/01 03:10:38;;;;;;;0.67;0.67;;;;;;;10.36;98.77;100085.13;5073880;28;20626;-71
2022/06/01 03:13:04;;;;;;;0.13;0.13;;;;;;;10.34;100.00;100080.00;5072248;28;20224;-72
2022/06/01 03:15:30;;;;;;;1.17;1.17;;;;;;;10.30;100.00;100087.22;5073559;28;20202;-72
2022/06/01 03:17:55;;;;;;;1.33;0.77;;;;;;;10.31;100.00;100082.56;5073222;28;20198;-71
2022/06/01 03:20:24;;;;;;;2.43;2.30;;;;;;;10.26;100.00;100082.69;5072217;28;20217;-72
2022/06/01 03:22:49;;;;;;;1.37;0.80;;;;;;;10.25;100.00;100089.28;5072899;28;20529;-71
2022/06/01 03:25:18;;;;;;;2.30;2.10;;;;;;;10.20;100.00;100084.75;5071987;28;20236;-72
2022/06/01 03:27:45;;;;;;;3.33;3.13;;;;;;;10.20;100.00;100079.31;5071569;28;20265;-73
2022/06/01 03:30:13;;;;;;;1.53;1.43;;;;;;;10.16;100.00;100081.06;5072160;28;20221;-73
2022/06/01 03:32:39;;;;;;;2.83;2.67;;;;;;;10.08;100.00;100076.38;5073414;28;20179;-74
2022/06/01 03:35:06;;;;;;;1.60;1.50;;;;;;;10.05;100.00;100075.09;5072256;28;20542;-74
2022/06/01 03:37:31;;;;;;;1.87;1.80;;;;;;;10.03;100.00;100079.25;5072875;28;20175;-74
2022/06/01 03:39:57;;;;;;;1.03;1.03;;;;;;;9.98;100.00;100082.94;5073433;28;20173;-75
2022/06/01 03:42:23;;;;;;;2.10;1.90;;;;;;;9.95;100.00;100091.75;5073409;28;20166;-74
2022/06/01 03:47:32;;;;;;;1.97;1.87;;;;;;;9.92;100.00;100091.56;5072332;28;20212;-74
2022/06/01 03:49:58;;;;;;;5.13;2.27;;;;;;;9.93;100.00;100095.91;5071729;28;20504;-74
2022/06/01 03:52:25;;;;;;;1.83;1.73;;;;;;;9.93;100.00;100099.44;5073023;28;20178;-74
2022/06/01 03:54:50;;;;;;;2.63;2.43;;;;;;;9.95;100.00;100108.13;5073233;28;20163;-74
2022/06/01 03:57:16;;;;;;;2.60;2.40;;;;;;;9.99;100.00;100108.31;5072628;28;20587;-74
2022/06/01 03:59:41;;;;;;;12.10;3.50;;;;;;;10.00;100.00;100109.91;5072676;28;20304;-75
2022/06/01 04:02:07;;;;;;;1.70;1.60;;;;;;;9.99;100.00;100113.78;5071391;28;20178;-74
2022/06/01 04:04:33;;;;;;;1.90;1.80;;;;;;;9.99;100.00;100111.03;5071283;28;20207;-74
2022/06/01 04:06:58;;;;;;;2.70;1.97;;;;;;;9.98;100.00;100115.69;5071177;28;20630;-74
2022/06/01 04:09:24;;;;;;;2.47;1.83;;;;;;;10.01;100.00;100112.31;5072595;28;20392;-74
2022/06/01 04:11:51;;;;;;;1.90;1.73;;;;;;;10.02;100.00;100119.41;5072558;28;20627;-74
2022/06/01 04:14:18;;;;;;;1.23;1.23;;;;;;;10.01;100.00;100120.50;5071295;28;20167;-74
2022/06/01 04:16:43;;;;;;;1.80;1.70;;;;;;;10.02;100.00;100118.59;5072126;28;20673;-74
2022/06/01 04:19:09;;;;;;;2.33;1.70;;;;;;;10.01;100.00;100112.31;5072359;28;20206;-73
2022/06/01 04:21:39;;;;;;;1.80;1.70;;;;;;;10.00;100.00;100116.19;5072187;28;20254;-74
2022/06/01 04:24:12;;;;;;;1.53;1.43;;;;;;;9.98;100.00;100112.97;5072326;28;20171;-74
2022/06/01 04:26:37;;;;;;;2.13;2.03;;;;;;;9.98;100.00;100114.84;5070958;28;20568;-74
2022/06/01 04:29:03;;;;;;;1.23;1.17;;;;;;;9.96;100.00;100120.63;5070489;28;20174;-73
2022/06/01 04:31:28;;;;;;;3.00;2.80;;;;;;;9.98;100.00;100117.59;5072180;28;20175;-74
2022/06/01 04:33:54;;;;;;;2.40;2.30;;;;;;;10.00;100.00;100116.19;5071344;28;20235;-74
2022/06/01 04:36:19;;;;;;;1.30;1.20;;;;;;;10.00;100.00;100109.91;5071455;28;20202;-75
2022/06/01 04:38:45;;;;;;;3.07;2.87;;;;;;;10.00;100.00;100116.19;5071331;28;20182;-73
2022/06/01 04:41:10;;;;;;;0.93;0.93;;;;;;;10.00;100.00;100120.84;5071712;28;20540;-74
2022/06/01 04:43:35;;;;;;;1.33;1.20;;;;;;;9.97;100.00;100116.78;5069992;28;20650;-74
2022/06/01 04:46:01;;;;;;;0.43;0.43;;;;;;;9.97;100.00;100115.97;5070212;28;20174;-73
2022/06/01 04:48:27;;;;;;;1.77;1.67;;;;;;;9.98;99.81;100121.16;5070347;28;20258;-73
2022/06/01 04:50:54;;;;;;;2.90;1.03;;;;;;;10.02;99.43;100107.69;5070129;28;20261;-73
2022/06/01 04:53:19;;;;;;;0.00;0.00;;;;;;;10.09;98.52;100111.53;5070045;28;20174;-74
2022/06/01 04:55:46;;;;;;;1.07;1.07;;;;;;;10.23;97.76;100116.09;5069873;28;20232;-73
2022/06/01 04:58:12;;;;;;;0.00;0.00;;;;;;;10.40;96.85;100110.69;5069326;28;20327;-71
2022/06/01 05:00:39;;;;;;;0.00;0.00;;;;;;;10.61;95.37;100113.63;5069723;28;20543;-71
2022/06/01 05:03:04;;;;;;;0.00;0.00;;;;;;;10.72;94.70;100110.28;5071079;28;20228;-72
2022/06/01 05:05:31;;;;;;;0.20;0.20;;;;;;;10.83;92.40;100116.19;5071085;28;20186;-71
2022/06/01 05:07:56;;;;;;;0.37;0.37;;;;;;;10.84;90.89;100123.28;5069176;28;20589;-71
2022/06/01 05:10:22;;;;;;;1.43;1.43;;;;;;;10.80;90.42;100127.78;5071142;28;20182;-72
2022/06/01 05:12:50;;;;;;;0.40;0.40;;;;;;;10.78;91.46;100115.56;5069683;28;20647;-74
2022/06/01 05:15:16;;;;;;;0.00;0.00;;;;;;;10.87;91.93;100119.13;5070949;28;20178;-74
2022/06/01 05:17:41;;;;;;;3.63;1.13;;;;;;;10.91;91.90;100117.34;5070355;28;20177;-75
2022/06/01 05:20:08;;;;;;;0.10;0.10;;;;;;;10.96;91.46;100112.50;5070867;28;20166;-75
2022/06/01 05:22:33;;;;;;;0.93;0.93;;;;;;;11.00;92.17;100115.44;5070951;28;20225;-74
2022/06/01 05:24:59;;;;;;;2.37;2.27;;;;;;;11.05;92.70;100119.91;5071025;28;20710;-74
2022/06/01 05:27:24;;;;;;;1.97;1.87;;;;;;;11.07;92.39;100112.19;5070202;28;20635;-73
2022/06/01 05:29:50;;;;;;;0.00;0.00;;;;;;;11.13;93.26;100111.69;5070496;28;20261;-75
2022/06/01 05:32:17;;;;;;;0.40;0.40;;;;;;;11.22;93.02;100117.16;5069494;28;20182;-72
2022/06/01 05:34:43;;;;;;;1.23;1.23;;;;;;;11.28;92.38;100116.69;5070854;28;20359;-71
2022/06/01 05:37:08;;;;;;;0.93;0.93;;;;;;;11.38;91.43;100125.66;5070111;28;20577;-72
2022/06/01 05:39:34;;;;;;;2.87;2.73;;;;;;;11.41;90.86;100125.81;5070630;28;20182;-71
2022/06/01 05:41:59;;;;;;;2.03;1.93;;;;;;;11.46;89.51;100122.94;5070648;28;20281;-71
2022/06/01 05:44:24;;;;;;;1.13;1.13;;;;;;;11.55;90.54;100126.44;5069285;28;20261;-71
2022/06/01 05:46:58;;;;;;;2.33;2.13;;;;;;;11.55;88.06;100125.63;5068098;28;20185;-71
2022/06/01 05:49:24;;;;;;;3.67;3.33;;;;;;;11.57;87.37;100135.13;5068864;28;20207;-72
2022/06/01 05:51:50;;;;;;;0.87;0.87;;;;;;;11.65;87.66;100138.16;5070627;28;20626;-72
2022/06/01 05:54:15;;;;;;;2.77;2.57;;;;;;;11.66;88.19;100132.38;5070894;28;20179;-71
2022/06/01 05:56:40;;;;;;;6.07;3.27;;;;;;;11.61;86.73;100132.53;5070136;28;20288;-71
2022/06/01 05:59:05;;;;;;;0.60;0.60;;;;;;;11.63;88.21;100138.50;5069953;28;20166;-71
2022/06/01 06:01:31;;;;;;;4.60;2.83;;;;;;;11.62;89.15;100136.88;5069181;28;20535;-72
2022/06/01 06:03:57;;;;;;;4.10;3.57;;;;;;;11.57;89.34;100137.03;5069214;28;20654;-72
2022/06/01 06:06:23;;;;;;;2.77;2.50;;;;;;;11.52;89.56;100137.22;5070761;28;20174;-72
2022/06/01 06:08:55;;;;;;;0.63;0.63;;;;;;;11.49;90.45;100149.63;5069807;28;20253;-72
2022/06/01 06:11:22;;;;;;;2.30;2.20;;;;;;;11.53;91.42;100149.78;5070421;28;20257;-71
2022/06/01 06:13:47;;;;;;;3.30;3.07;;;;;;;11.51;91.50;100152.84;5070362;28;20177;-72
2022/06/01 06:16:15;;;;;;;0.93;0.83;;;;;;;11.52;91.66;100159.13;5069042;28;20202;-72
2022/06/01 06:18:41;;;;;;;2.73;2.27;;;;;;;11.54;91.40;100159.59;5069431;28;20178;-72
2022/06/01 06:21:07;;;;;;;1.03;0.97;;;;;;;11.60;92.06;100159.09;5070335;28;20187;-72
2022/06/01 06:23:33;;;;;;;1.90;1.80;;;;;;;11.71;92.36;100165.03;5070423;28;20654;-73
2022/06/01 06:25:58;;;;;;;3.17;2.97;;;;;;;11.86;91.79;100167.28;5070162;28;20187;-72
2022/06/01 06:28:24;;;;;;;2.17;2.00;;;;;;;11.96;89.23;100166.13;5068101;28;20662;-73
2022/06/01 06:30:51;;;;;;;14.80;3.10;;;;;;;12.06;87.99;100167.69;5070211;28;20175;-72
2022/06/01 06:33:17;;;;;;;2.00;1.73;;;;;;;12.12;87.10;100171.84;5070273;28;20257;-73
2022/06/01 06:35:42;;;;;;;3.47;3.13;;;;;;;12.19;86.73;100183.13;5068826;28;20792;-71
2022/06/01 06:38:07;;;;;;;3.23;3.03;;;;;;;12.25;86.51;100173.56;5066920;28;20232;-70
2022/06/01 06:40:33;;;;;;;1.53;1.53;;;;;;;12.32;84.75;100182.09;5082646;28;20257;-71
2022/06/01 06:42:58;;;;;;;7.00;3.53;;;;;;;12.49;83.50;100184.75;5069617;28;20204;-79
2022/06/01 06:45:23;;;;;;;3.43;3.13;;;;;;;12.58;80.50;100183.88;5069625;28;20197;-71
2022/06/01 06:47:50;;;;;;;3.50;2.73;;;;;;;12.65;81.80;100179.50;5069347;28;20177;-71
2022/06/01 06:50:17;;;;;;;3.03;2.80;;;;;;;12.69;82.63;100187.84;5070832;28;20174;-71
2022/06/01 06:52:42;;;;;;;2.70;2.53;;;;;;;12.75;82.87;100194.78;5070006;28;20666;-71
2022/06/01 06:55:09;;;;;;;1.50;1.50;;;;;;;12.77;81.64;100187.81;5069779;28;20430;-71
2022/06/01 06:57:35;;;;;;;3.63;3.17;;;;;;;12.85;80.76;100177.09;5070604;28;20257;-71
2022/06/01 07:00:00;;;;;;;3.83;3.53;;;;;;;12.91;80.95;100186.75;5072168;28;20714;-71
2022/06/01 07:02:26;;;;;;;2.53;2.37;;;;;;;12.95;80.05;100187.69;5072059;28;20630;-71
2022/06/01 07:04:51;;;;;;;3.37;2.90;;;;;;;13.02;80.53;100187.97;5073282;28;20177;-70
2022/06/01 07:07:17;;;;;;;2.47;2.27;;;;;;;13.04;81.14;100189.25;5072975;28;20174;-71
2022/06/01 07:09:42;;;;;;;0.40;0.40;;;;;;;13.11;80.85;100192.25;5073428;28;20170;-71
2022/06/01 07:12:10;;;;;;;1.33;1.30;;;;;;;13.34;81.41;100186.47;5073908;28;20174;-71
2022/06/01 07:14:35;;;;;;;2.23;2.10;;;;;;;13.39;79.55;100187.03;5072463;28;20634;-71
2022/06/01 07:17:01;;;;;;;1.10;1.10;;;;;;;13.42;79.31;100209.47;5073556;28;20209;-71
2022/06/01 07:19:27;;;;;;;1.70;1.60;;;;;;;13.34;79.74;100198.22;5072010;28;20167;-71
2022/06/01 07:21:53;;;;;;;0.57;0.57;;;;;;;13.32;79.03;100186.78;5072937;28;20231;-71
2022/06/01 07:24:19;;;;;;;0.87;0.83;;;;;;;13.47;78.65;100193.59;5073266;28;20175;-71
2022/06/01 07:26:45;;;;;;;1.30;1.20;;;;;;;13.52;78.29;100193.38;5072875;28;20646;-71
2022/06/01 07:29:13;;;;;;;0.27;0.27;;;;;;;13.57;77.66;100193.16;5070874;28;20572;-71
2022/06/01 07:31:39;;;;;;;2.23;2.00;;;;;;;13.52;76.77;100190.66;5072665;28;20174;-71
2022/06/01 07:34:05;;;;;;;1.40;1.33;;;;;;;13.53;77.09;100195.00;5071309;28;20527;-72
2022/06/01 07:36:31;;;;;;;5.50;2.13;;;;;;;13.60;77.27;100192.53;5070911;28;20248;-72
2022/06/01 07:44:35;;;;;;;2.03;1.90;;;;;;;13.55;76.57;100191.91;5072246;28;20290;-72
2022/06/01 07:47:00;;;;;;;4.07;3.77;;;;;;;13.64;76.37;100195.38;5070827;28;20697;-71
2022/06/01 07:49:26;;;;;;;0.13;0.13;;;;;;;13.58;74.91;100196.72;5071517;28;20174;-74
2022/06/01 07:51:53;;;;;;;1.10;1.10;;;;;;;13.55;74.20;100198.19;5071925;28;20174;-71
2022/06/01 07:54:20;;;;;;;3.00;2.20;;;;;;;13.47;74.34;100209.28;5070382;28;20222;-71
2022/06/01 07:56:45;;;;;;;2.23;2.07;;;;;;;13.31;74.88;100200.84;5071918;28;20222;-72
2022/06/01 07:59:11;;;;;;;1.90;1.80;;;;;;;13.13;74.77;100213.03;5071181;28;20668;-71
2022/06/01 08:01:37;;;;;;;2.03;1.93;;;;;;;13.06;75.56;100210.84;5071705;28;20171;-71
2022/06/01 08:04:05;;;;;;;1.07;1.07;;;;;;;13.10;75.66;100209.03;5071649;28;20185;-75
2022/06/01 08:06:32;;;;;;;0.70;0.53;;;;;;;13.20;75.20;100214.16;5070427;28;20182;-73
2022/06/01 08:08:58;;;;;;;3.63;2.23;;;;;;;13.33;76.41;100218.59;5069887;28;20185;-79
2022/06/01 08:13:06;;;;;;;0.70;0.70;;;;;;;13.37;77.04;100215.97;5072462;28;20182;-75
2022/06/01 08:14:13;;;;;;;1.43;1.33;;;;;;;13.43;76.19;100217.34;5071687;28;20178;-79
2022/06/01 08:16:40;;;;;;;1.63;1.63;;;;;;;13.48;76.65;100213.63;5070077;28;20214;-73
2022/06/01 08:19:06;;;;;;;0.90;0.90;;;;;;;13.48;76.52;100213.63;5071760;28;20178;-71
2022/06/01 08:21:36;;;;;;;1.90;1.80;;;;;;;13.48;76.63;100221.84;5071730;28;20170;-74
2022/06/01 08:24:02;;;;;;;0.00;0.00;;;;;;;13.63;77.06;100222.03;5070380;28;20171;-71
2022/06/01 08:26:28;;;;;;;2.27;2.17;;;;;;;13.95;77.17;100219.63;5071707;28;20167;-71
2022/06/01 08:28:53;;;;;;;2.53;2.43;;;;;;;14.22;75.49;100212.69;5071329;28;20686;-73
2022/06/01 08:31:19;;;;;;;1.03;1.03;;;;;;;14.46;74.44;100211.94;5071690;28;20174;-72
2022/06/01 08:33:44;;;;;;;2.37;2.17;;;;;;;14.69;74.00;100215.84;5071855;28;20167;-72
2022/06/01 08:36:10;;;;;;;1.17;1.17;;;;;;;14.64;70.38;100207.81;5071782;28;20186;-71
2022/06/01 08:38:35;;;;;;;2.03;1.93;;;;;;;14.43;69.93;100221.63;5071298;28;20170;-71
2022/06/01 08:41:09;;;;;;;2.43;2.10;;;;;;;14.18;70.17;100223.56;5071429;28;20619;-72
2022/06/01 08:44:07;;;;;;;2.27;2.07;;;;;;;14.03;69.94;100221.44;5069989;28;20197;-71
2022/06/01 08:46:34;;;;;;;0.00;0.00;;;;;;;14.12;70.64;100213.94;5045290;28;20187;-75
2022/06/01 08:49:04;;;;;;;1.30;0.93;;;;;;;14.28;70.63;100214.06;5071157;28;20189;-72
2022/06/01 08:51:31;;;;;;;2.13;1.50;;;;;;;14.56;69.01;100214.22;5071285;28;20206;-71
2022/06/01 08:53:59;;;;;;;2.83;1.10;;;;;;;14.69;67.80;100210.34;5071177;28;20170;-72
2022/06/01 08:56:35;;;;;;;2.20;2.10;;;;;;;14.69;66.86;100213.09;5071007;28;20207;-72
2022/06/01 08:59:13;;;;;;;1.13;0.57;;;;;;;14.59;66.40;100202.53;5070882;28;20574;-73
2022/06/01 09:01:51;;;;;;;1.43;1.33;;;;;;;14.57;68.23;100216.63;5069920;28;20182;-71
2022/06/01 09:04:25;;;;;;;0.10;0.10;;;;;;;14.73;69.58;100207.69;5069742;28;20178;-71
2022/06/01 09:07:02;;;;;;;1.17;1.13;;;;;;;14.94;70.77;100204.81;5069579;28;20194;-71
2022/06/01 09:09:55;;;;;;;2.63;2.47;;;;;;;14.73;70.92;100213.19;5069524;28;20191;-72
2022/06/01 09:12:20;;;;;;;1.40;1.40;;;;;;;14.36;72.83;100226.09;5069607;28;20273;-76
2022/06/01 09:14:51;;;;;;;0.60;0.60;;;;;;;13.75;78.50;100231.47;5070876;28;20581;-73
2022/06/01 09:17:17;;;;;;;3.20;3.00;;;;;;;13.11;82.05;100227.09;5070462;28;20232;-76
2022/06/01 09:22:37;;;;;;;0.73;0.73;;;;;;;12.50;89.92;100221.16;5070854;28;20220;-73
2022/06/01 09:25:06;;;;;;;2.73;2.53;;;;;;;12.40;92.50;100227.81;5070719;28;20174;-72
2022/06/01 09:27:39;;;;;;;0.30;0.30;;;;;;;12.56;94.98;100228.06;5070200;28;20711;-71
2022/06/01 09:30:25;;;;;;;0.00;0.00;;;;;;;12.88;96.45;100221.13;5069204;28;20308;-72
2022/06/01 09:33:14;;;;;;;3.20;3.00;;;;;;;13.14;93.41;100220.94;5069284;28;20549;-72
2022/06/01 09:36:02;;;;;;;0.33;0.33;;;;;;;13.62;91.75;100222.38;5070497;28;20248;-71
2022/06/01 09:38:39;;;;;;;0.93;0.83;;;;;;;13.93;86.38;100219.97;5070051;28;20159;-72
2022/06/01 09:41:09;;;;;;;2.27;2.07;;;;;;;14.43;86.28;100229.06;5069162;28;20174;-72
2022/06/01 09:43:39;;;;;;;3.50;3.20;;;;;;;14.85;81.86;100230.50;5070082;28;20683;-72
2022/06/01 09:46:05;;;;;;;3.30;3.10;;;;;;;14.70;80.50;100252.38;5056470;28;20205;-71
2022/06/01 09:48:46;;;;;;;0.70;0.70;;;;;;;13.91;78.73;100257.94;5065617;28;20636;-73
2022/06/01 09:51:13;;;;;;;0.00;0.00;;;;;;;12.96;81.78;100236.72;5066383;28;20166;-73
2022/06/01 09:53:43;;;;;;;0.60;0.60;;;;;;;12.67;84.87;100225.75;5069588;28;20171;-71
2022/06/01 09:56:09;;;;;;;0.00;0.00;;;;;;;12.64;83.65;100218.19;5069839;28;20209;-72
2022/06/01 10:07:00;;;;;;;0.10;0.10;;;;;;;14.06;75.82;100218.03;5070640;28;20224;-72
2022/06/01 10:09:29;;;;;;;0.63;0.63;;;;;;;14.34;77.15;100212.72;5069101;28;20170;-72
2022/06/01 10:11:55;;;;;;;0.10;0.10;;;;;;;14.45;74.98;100213.88;5070893;28;20174;-73
2022/06/01 10:14:23;;;;;;;0.10;0.10;;;;;;;14.59;78.05;100214.34;5071282;28;20503;-72
2022/06/01 10:16:55;;;;;;;1.30;1.20;;;;;;;14.48;77.52;100210.47;5070509;28;20198;-73
2022/06/01 10:19:29;;;;;;;0.77;0.77;;;;;;;14.43;78.41;100207.09;5070183;28;20174;-82
2022/06/01 10:22:03;;;;;;;2.13;2.03;;;;;;;14.33;76.69;100210.31;5070194;28;20182;-72
2022/06/01 10:24:34;;;;;;;2.93;2.73;;;;;;;14.37;78.67;100208.47;5062812;28;20171;-73
2022/06/01 10:27:01;;;;;;;2.13;2.03;;;;;;;14.65;77.53;100201.19;5070655;28;20641;-71
2022/06/01 10:29:39;;;;;;;2.63;2.43;;;;;;;14.89;75.82;100206.63;5061199;28;20198;-71
2022/06/01 10:32:10;;;;;;;0.33;0.33;;;;;;;14.81;72.95;100204.81;5067846;28;20261;-71
2022/06/01 10:34:55;;;;;;;1.70;1.43;;;;;;;14.89;73.90;100209.38;5059120;28;20590;-71
2022/06/01 10:37:30;;;;;;;1.27;1.17;;;;;;;15.14;74.20;100203.84;5067361;28;20791;-71
2022/06/01 10:40:04;;;;;;;0.63;0.63;;;;;;;15.44;72.78;100196.88;5074447;28;20205;-71
2022/06/01 10:45:26;;;;;;;1.57;1.47;;;;;;;15.82;69.90;100198.34;5073676;28;20259;-72
2022/06/01 10:48:07;;;;;;;2.90;2.70;;;;;;;15.92;69.39;100199.78;5073710;28;20175;-71
2022/06/01 10:50:39;;;;;;;1.60;1.50;;;;;;;16.23;71.14;100199.81;5073986;28;20175;-72
2022/06/01 10:53:14;;;;;;;1.90;1.80;;;;;;;16.06;67.56;100200.16;5073511;28;20201;-72
2022/06/01 10:55:43;;;;;;;0.20;0.20;;;;;;;16.32;69.76;100196.88;5073607;28;20293;-71
2022/06/01 10:58:16;;;;;;;0.47;0.47;;;;;;;16.41;65.90;100200.25;5073468;28;20213;-71
2022/06/01 11:00:50;;;;;;;0.53;0.40;;;;;;;16.38;62.08;100195.47;5073899;28;20591;-71
2022/06/01 11:03:15;;;;;;;0.47;0.47;;;;;;;16.38;64.16;100205.69;5072216;28;20879;-73
2022/06/01 11:05:50;;;;;;;0.60;0.60;;;;;;;16.47;62.69;100204.34;5070627;28;20187;-72
2022/06/01 11:08:53;;;;;;;0.77;0.77;;;;;;;16.51;62.17;100202.47;5066913;28;20182;-72
2022/06/01 11:11:18;;;;;;;0.60;0.60;;;;;;;16.26;62.26;100203.81;5062947;28;20186;-71
2022/06/01 11:14:21;;;;;;;0.60;0.30;;;;;;;16.23;62.42;100199.00;5073406;28;20181;-72
2022/06/01 11:16:58;;;;;;;0.67;0.67;;;;;;;16.42;64.74;100201.06;5054870;28;20214;-71
2022/06/01 11:19:44;;;;;;;0.57;0.57;;;;;;;16.41;63.53;100194.75;5071403;28;20185;-71
2022/06/01 11:22:25;;;;;;;2.03;1.93;;;;;;;16.56;62.24;100191.16;5072987;28;20170;-72
2022/06/01 11:25:04;;;;;;;1.33;1.27;;;;;;;16.52;62.33;100190.28;5073245;28;20163;-72
2022/06/01 11:27:41;;;;;;;1.63;1.53;;;;;;;16.47;62.38;100187.78;5072626;28;20517;-71
2022/06/01 11:30:26;;;;;;;1.27;1.23;;;;;;;16.54;61.29;100181.66;5073127;28;20162;-72
2022/06/01 11:33:00;;;;;;;1.37;0.97;;;;;;;16.69;59.99;100186.38;5073083;28;20270;-72
2022/06/01 11:35:32;;;;;;;2.10;1.93;;;;;;;16.88;62.13;100180.91;5072972;28;20636;-72
2022/06/01 11:38:05;;;;;;;2.17;1.43;;;;;;;17.08;62.27;100186.47;5072204;28;20171;-72
2022/06/01 11:40:49;;;;;;;0.83;0.83;;;;;;;17.11;59.54;100186.53;5073015;28;20644;-71
2022/06/01 11:43:24;;;;;;;0.77;0.77;;;;;;;17.32;59.81;100188.13;5072458;28;20159;-71
2022/06/01 11:46:00;;;;;;;0.70;0.67;;;;;;;17.36;58.25;100186.25;5071893;28;20205;-72
2022/06/01 11:48:31;;;;;;;0.60;0.60;;;;;;;17.03;58.53;100187.53;5072338;28;20169;-72
2022/06/01 11:51:06;;;;;;;1.70;1.60;;;;;;;16.92;61.16;100189.25;5072789;28;20159;-72
2022/06/01 11:53:43;;;;;;;3.00;2.80;;;;;;;16.68;59.89;100192.25;5072684;28;20193;-71
2022/06/01 11:56:30;;;;;;;0.87;0.87;;;;;;;16.56;61.69;100191.16;5072612;28;20283;-71
2022/06/01 11:58:58;;;;;;;0.30;0.30;;;;;;;16.35;61.34;100183.19;5072012;28;20163;-72
2022/06/01 12:01:35;;;;;;;1.40;1.30;;;;;;;16.31;62.55;100184.25;5072245;28;20231;-72
2022/06/01 12:04:12;;;;;;;1.80;1.70;;;;;;;16.30;60.76;100194.47;5072491;28;20371;-72